sensor_id;sensor_type;location;lat;lon;timestamp;P1;P2;P0
74434;PMS7003;62867;52.038;29.256;2022-09-09T00:04:02;7.8;5.4;4
74434;PMS7003;62867;52.038;29.256;2022-09-09T00:08:36;6;5;3
74434;PMS7003;62867;52.038;29.256;2022-09-09T00:13:27;6.6;5.4;3.2
74434;PMS7003;62867;52.038;29.256;2022-09-09T00:19:39;9;7.2;4.2
74434;PMS7003;62867;52.038;29.256;2022-09-09T00:24:08;9.8;5.6;3.8
74434;PMS7003;62867;52.038;29.256;2022-09-09T00:28:50;8.6;6;3.6
74434;PMS7003;62867;52.038;29.256;2022-09-09T00:33:51;10.6;6.2;4
74434;PMS7003;62867;52.038;29.256;2022-09-09T00:39:04;9.8;6.6;4.4
74434;PMS7003;62867;52.038;29.256;2022-09-09T00:44:03;9.3;7;3.8
74434;PMS7003;62867;52.038;29.256;2022-09-09T00:48:47;9.6;7.4;4
74434;PMS7003;62867;52.038;29.256;2022-09-09T00:53:34;9.8;5.8;3.2
74434;PMS7003;62867;52.038;29.256;2022-09-09T00:58:33;7.2;5.6;3
74434;PMS7003;62867;52.038;29.256;2022-09-09T01:03:39;8;6.8;4
74434;PMS7003;62867;52.038;29.256;2022-09-09T01:08:36;7.2;6;3.4
74434;PMS7003;62867;52.038;29.256;2022-09-09T01:13:31;8.8;7.2;3.4
74434;PMS7003;62867;52.038;29.256;2022-09-09T01:18:57;9.2;6.6;4.4
74434;PMS7003;62867;52.038;29.256;2022-09-09T01:24:28;11;8.2;4.4
74434;PMS7003;62867;52.038;29.256;2022-09-09T01:28:46;8.6;6.8;3.4
74434;PMS7003;62867;52.038;29.256;2022-09-09T01:34:19;8.6;6.2;4.2
74434;PMS7003;62867;52.038;29.256;2022-09-09T01:38:57;6.8;5.6;3.6
74434;PMS7003;62867;52.038;29.256;2022-09-09T01:43:33;8.5;6.5;3.8
74434;PMS7003;62867;52.038;29.256;2022-09-09T01:48:33;8.8;6;4.2
74434;PMS7003;62867;52.038;29.256;2022-09-09T01:53:27;8.8;6.4;3.4
74434;PMS7003;62867;52.038;29.256;2022-09-09T02:03:49;9.4;6.8;3.8
74434;PMS7003;62867;52.038;29.256;2022-09-09T02:08:52;7.6;6.6;4
74434;PMS7003;62867;52.038;29.256;2022-09-09T02:13:53;7.2;6.4;3.8
74434;PMS7003;62867;52.038;29.256;2022-09-09T02:18:57;9.6;6;3.6
74434;PMS7003;62867;52.038;29.256;2022-09-09T02:23:43;7.6;6.6;3.8
74434;PMS7003;62867;52.038;29.256;2022-09-09T02:28:50;7.8;6.2;3.8
74434;PMS7003;62867;52.038;29.256;2022-09-09T02:33:44;6.6;5.6;3
74434;PMS7003;62867;52.038;29.256;2022-09-09T02:38:33;9.6;6;3.8
74434;PMS7003;62867;52.038;29.256;2022-09-09T02:43:34;7.3;5.5;3.5
74434;PMS7003;62867;52.038;29.256;2022-09-09T02:49:09;6.6;5.4;3
74434;PMS7003;62867;52.038;29.256;2022-09-09T02:54:10;7.2;5.2;3.4
74434;PMS7003;62867;52.038;29.256;2022-09-09T02:58:23;7.2;5.6;3.2
74434;PMS7003;62867;52.038;29.256;2022-09-09T03:03:45;7.6;5.6;3.6
74434;PMS7003;62867;52.038;29.256;2022-09-09T03:08:53;5.6;4.8;3.6
74434;PMS7003;62867;52.038;29.256;2022-09-09T03:14:03;7.8;5;3.2
74434;PMS7003;62867;52.038;29.256;2022-09-09T03:18:33;6.2;4.6;3.2
74434;PMS7003;62867;52.038;29.256;2022-09-09T03:23:23;7.2;5.4;3.2
74434;PMS7003;62867;52.038;29.256;2022-09-09T03:28:39;7.2;6;3.2
74434;PMS7003;62867;52.038;29.256;2022-09-09T03:33:33;5.8;5.4;3.6
74434;PMS7003;62867;52.038;29.256;2022-09-09T03:38:37;8;5;3
74434;PMS7003;62867;52.038;29.256;2022-09-09T03:43:39;7.4;5.2;3
74434;PMS7003;62867;52.038;29.256;2022-09-09T03:48:55;6.3;4.5;3
74434;PMS7003;62867;52.038;29.256;2022-09-09T03:53:53;8.4;6;3.4
74434;PMS7003;62867;52.038;29.256;2022-09-09T03:59:03;4.6;4.4;3
74434;PMS7003;62867;52.038;29.256;2022-09-09T04:03:55;7;5.4;3.8
74434;PMS7003;62867;52.038;29.256;2022-09-09T04:09:03;6.2;5.4;3.4
74434;PMS7003;62867;52.038;29.256;2022-09-09T04:14:05;6;5;3
74434;PMS7003;62867;52.038;29.256;2022-09-09T04:18:31;6.2;5.6;3.6
74434;PMS7003;62867;52.038;29.256;2022-09-09T04:23:39;6.6;5;3.4
74434;PMS7003;62867;52.038;29.256;2022-09-09T04:28:55;5.4;4.2;2.4
74434;PMS7003;62867;52.038;29.256;2022-09-09T04:34:08;5.6;5.2;3
74434;PMS7003;62867;52.038;29.256;2022-09-09T04:38:51;6.6;5.4;3.2
74434;PMS7003;62867;52.038;29.256;2022-09-09T04:43:55;5.8;4.6;3
74434;PMS7003;62867;52.038;29.256;2022-09-09T04:48:53;6.3;4.5;2.8
74434;PMS7003;62867;52.038;29.256;2022-09-09T04:53:41;6.8;5;2.8
74434;PMS7003;62867;52.038;29.256;2022-09-09T04:58:43;6;4.8;3
74434;PMS7003;62867;52.038;29.256;2022-09-09T05:03:54;11;8.8;5
74434;PMS7003;62867;52.038;29.256;2022-09-09T05:08:23;11.2;7.4;4.4
74434;PMS7003;62867;52.038;29.256;2022-09-09T05:13:33;9;7.6;5
74434;PMS7003;62867;52.038;29.256;2022-09-09T05:18:35;7.2;5;3
74434;PMS7003;62867;52.038;29.256;2022-09-09T05:24:11;6.2;5;3.8
74434;PMS7003;62867;52.038;29.256;2022-09-09T05:28:59;7.2;4.8;3
74434;PMS7003;62867;52.038;29.256;2022-09-09T05:33:47;7.8;5.2;3.4
74434;PMS7003;62867;52.038;29.256;2022-09-09T05:38:49;7.8;5;3.2
74434;PMS7003;62867;52.038;29.256;2022-09-09T05:44:09;5.4;4.4;2.6
74434;PMS7003;62867;52.038;29.256;2022-09-09T05:49:09;8;6;4
74434;PMS7003;62867;52.038;29.256;2022-09-09T05:53:25;7;5.6;3.6
74434;PMS7003;62867;52.038;29.256;2022-09-09T05:58:34;7.6;6.6;4.2
74434;PMS7003;62867;52.038;29.256;2022-09-09T06:03:59;7;5.8;3.8
74434;PMS7003;62867;52.038;29.256;2022-09-09T06:08:52;5.6;4.2;3
74434;PMS7003;62867;52.038;29.256;2022-09-09T06:13:43;7.2;5.2;3.4
74434;PMS7003;62867;52.038;29.256;2022-09-09T06:18:33;6.4;4.8;2.8
74434;PMS7003;62867;52.038;29.256;2022-09-09T06:23:33;5;4.4;2.4
74434;PMS7003;62867;52.038;29.256;2022-09-09T06:29:07;4.8;4;2
74434;PMS7003;62867;52.038;29.256;2022-09-09T06:33:53;5.2;3.8;2.6
74434;PMS7003;62867;52.038;29.256;2022-09-09T06:39:09;5.8;4.2;2.6
74434;PMS7003;62867;52.038;29.256;2022-09-09T06:44:09;6;4.6;3.2
74434;PMS7003;62867;52.038;29.256;2022-09-09T06:48:47;5.8;4.8;2.8
74434;PMS7003;62867;52.038;29.256;2022-09-09T06:53:45;5;4.2;2.4
74434;PMS7003;62867;52.038;29.256;2022-09-09T06:59:00;5.6;4.6;2.8
74434;PMS7003;62867;52.038;29.256;2022-09-09T07:04:11;3.6;3.2;2
74434;PMS7003;62867;52.038;29.256;2022-09-09T07:08:55;4;3.2;1.8
74434;PMS7003;62867;52.038;29.256;2022-09-09T07:14:00;3.8;2.8;1.8
74434;PMS7003;62867;52.038;29.256;2022-09-09T07:18:57;3;2;1
74434;PMS7003;62867;52.038;29.256;2022-09-09T07:23:45;3.4;2.2;1.2
74434;PMS7003;62867;52.038;29.256;2022-09-09T07:28:25;2.6;1.6;1
74434;PMS7003;62867;52.038;29.256;2022-09-09T07:33:58;1.8;1.6;0.8
74434;PMS7003;62867;52.038;29.256;2022-09-09T07:38:23;2.2;1.6;1
74434;PMS7003;62867;52.038;29.256;2022-09-09T07:43:33;2.4;1.4;0.8
74434;PMS7003;62867;52.038;29.256;2022-09-09T07:48:44;1.5;1.5;0.5
74434;PMS7003;62867;52.038;29.256;2022-09-09T07:54:12;2.2;1.2;0.6
74434;PMS7003;62867;52.038;29.256;2022-09-09T07:58:58;1.6;1;0.2
74434;PMS7003;62867;52.038;29.256;2022-09-09T08:04:07;1.4;1;0.8
74434;PMS7003;62867;52.038;29.256;2022-09-09T08:08:49;1.6;1.4;0.8
74434;PMS7003;62867;52.038;29.256;2022-09-09T08:14:11;1.6;1;0.6
74434;PMS7003;62867;52.038;29.256;2022-09-09T08:19:12;2;1.4;0.8
74434;PMS7003;62867;52.038;29.256;2022-09-09T08:23:23;0.8;0.8;0
74434;PMS7003;62867;52.038;29.256;2022-09-09T08:28:33;0.6;0.6;0
74434;PMS7003;62867;52.038;29.256;2022-09-09T08:33:23;1.2;0.8;0.2
74434;PMS7003;62867;52.038;29.256;2022-09-09T08:38:23;1;0.8;0.4
74434;PMS7003;62867;52.038;29.256;2022-09-09T08:43:46;0.8;0.8;0.4
74434;PMS7003;62867;52.038;29.256;2022-09-09T08:49:02;0.8;0.2;0
74434;PMS7003;62867;52.038;29.256;2022-09-09T08:54:03;0;0;0
74434;PMS7003;62867;52.038;29.256;2022-09-09T08:59:14;1.2;0.2;0
74434;PMS7003;62867;52.038;29.256;2022-09-09T09:14:09;0.4;0.2;0
74434;PMS7003;62867;52.038;29.256;2022-09-09T09:18:33;0.2;0.2;0
74434;PMS7003;62867;52.038;29.256;2022-09-09T09:24:14;0.6;0;0
74434;PMS7003;62867;52.038;29.256;2022-09-09T09:28:33;0.6;0;0
74434;PMS7003;62867;52.038;29.256;2022-09-09T09:34:04;0.4;0.2;0
74434;PMS7003;62867;52.038;29.256;2022-09-09T09:38:56;0;0;0
74434;PMS7003;62867;52.038;29.256;2022-09-09T09:44:41;1;0;0
74434;PMS7003;62867;52.038;29.256;2022-09-09T09:48:57;0;0;0
74434;PMS7003;62867;52.038;29.256;2022-09-09T09:54:07;0.8;0.3;0.3
74434;PMS7003;62867;52.038;29.256;2022-09-09T09:58:51;0.6;0.2;0
74434;PMS7003;62867;52.038;29.256;2022-09-09T10:03:57;0.4;0;0
74434;PMS7003;62867;52.038;29.256;2022-09-09T10:08:22;0.2;0;0
74434;PMS7003;62867;52.038;29.256;2022-09-09T10:13:49;0.4;0.2;0
74434;PMS7003;62867;52.038;29.256;2022-09-09T10:24:18;1.8;1;0.4
74434;PMS7003;62867;52.038;29.256;2022-09-09T10:29:13;2.2;0.2;0
74434;PMS7003;62867;52.038;29.256;2022-09-09T10:33:43;1.4;0;0
74434;PMS7003;62867;52.038;29.256;2022-09-09T10:39:49;0.2;0.2;0
74434;PMS7003;62867;52.038;29.256;2022-09-09T10:44:15;0.4;0;0
74434;PMS7003;62867;52.038;29.256;2022-09-09T10:49:32;0.4;0.2;0
74434;PMS7003;62867;52.038;29.256;2022-09-09T10:53:30;0;0;0
74434;PMS7003;62867;52.038;29.256;2022-09-09T10:58:35;0;0;0
74434;PMS7003;62867;52.038;29.256;2022-09-09T11:03:39;0.2;0;0
74434;PMS7003;62867;52.038;29.256;2022-09-09T11:08:34;0;0;0
74434;PMS7003;62867;52.038;29.256;2022-09-09T11:13:58;0.2;0.2;0
74434;PMS7003;62867;52.038;29.256;2022-09-09T11:18:41;0.2;0;0
74434;PMS7003;62867;52.038;29.256;2022-09-09T11:23:57;1;0.6;0.2
74434;PMS7003;62867;52.038;29.256;2022-09-09T11:29:02;0.8;0.2;0
74434;PMS7003;62867;52.038;29.256;2022-09-09T11:34:12;0.6;0.4;0
74434;PMS7003;62867;52.038;29.256;2022-09-09T11:39:33;0.2;0;0
74434;PMS7003;62867;52.038;29.256;2022-09-09T11:43:57;0.2;0;0
74434;PMS7003;62867;52.038;29.256;2022-09-09T11:48:35;0.2;0.2;0
74434;PMS7003;62867;52.038;29.256;2022-09-09T11:53:23;1.8;0.8;0
74434;PMS7003;62867;52.038;29.256;2022-09-09T11:58:21;2.2;0.8;0
74434;PMS7003;62867;52.038;29.256;2022-09-09T12:04:01;0.4;0.4;0
74434;PMS7003;62867;52.038;29.256;2022-09-09T12:08:55;0.4;0.2;0
74434;PMS7003;62867;52.038;29.256;2022-09-09T12:14:19;1.6;0.4;0.2
74434;PMS7003;62867;52.038;29.256;2022-09-09T12:19:02;2.2;0.4;0
74434;PMS7003;62867;52.038;29.256;2022-09-09T12:23:48;2;0.2;0
74434;PMS7003;62867;52.038;29.256;2022-09-09T12:33:44;0.8;0.4;0.2
74434;PMS7003;62867;52.038;29.256;2022-09-09T12:38:32;1.8;1;0.4
74434;PMS7003;62867;52.038;29.256;2022-09-09T12:43:22;0.8;0.4;0
74434;PMS7003;62867;52.038;29.256;2022-09-09T12:48:34;1.4;0.2;0
74434;PMS7003;62867;52.038;29.256;2022-09-09T12:54:12;1.3;0.3;0
74434;PMS7003;62867;52.038;29.256;2022-09-09T12:59:17;0.4;0.2;0
74434;PMS7003;62867;52.038;29.256;2022-09-09T13:03:56;0.6;0.2;0
74434;PMS7003;62867;52.038;29.256;2022-09-09T13:09:00;0.6;0.6;0
74434;PMS7003;62867;52.038;29.256;2022-09-09T13:13:48;0;0;0
74434;PMS7003;62867;52.038;29.256;2022-09-09T13:19:13;1.4;0.4;0
74434;PMS7003;62867;52.038;29.256;2022-09-09T13:24:29;1.2;0.8;0.4
74434;PMS7003;62867;52.038;29.256;2022-09-09T13:29:15;0.8;0.4;0
74434;PMS7003;62867;52.038;29.256;2022-09-09T13:33:22;2;0.8;0.4
74434;PMS7003;62867;52.038;29.256;2022-09-09T13:38:22;1;0.4;0
74434;PMS7003;62867;52.038;29.256;2022-09-09T13:43:58;0.6;0.4;0.2
74434;PMS7003;62867;52.038;29.256;2022-09-09T13:48:41;1;0.2;0
74434;PMS7003;62867;52.038;29.256;2022-09-09T13:53:41;1.2;0.6;0.2
74434;PMS7003;62867;52.038;29.256;2022-09-09T13:58:57;0.5;0;0
74434;PMS7003;62867;52.038;29.256;2022-09-09T14:04:00;0.6;0;0
74434;PMS7003;62867;52.038;29.256;2022-09-09T14:08:56;1.2;1;0
74434;PMS7003;62867;52.038;29.256;2022-09-09T14:13:58;0.8;0.4;0
74434;PMS7003;62867;52.038;29.256;2022-09-09T14:19:14;1;0.6;0
74434;PMS7003;62867;52.038;29.256;2022-09-09T14:23:22;1.4;0.8;0.2
74434;PMS7003;62867;52.038;29.256;2022-09-09T14:28:22;2;0.6;0
74434;PMS7003;62867;52.038;29.256;2022-09-09T14:33:44;3;2;0.4
74434;PMS7003;62867;52.038;29.256;2022-09-09T14:39:10;2.4;1.6;0.6
74434;PMS7003;62867;52.038;29.256;2022-09-09T14:43:54;1.8;1.2;0.2
74434;PMS7003;62867;52.038;29.256;2022-09-09T14:48:56;2;1.4;0.4
74434;PMS7003;62867;52.038;29.256;2022-09-09T14:53:57;3;1.2;0.6
74434;PMS7003;62867;52.038;29.256;2022-09-09T14:58:44;4;2.5;1.5
74434;PMS7003;62867;52.038;29.256;2022-09-09T15:03:22;5;3.2;1.4
74434;PMS7003;62867;52.038;29.256;2022-09-09T15:08:54;6.8;4.6;2.4
74434;PMS7003;62867;52.038;29.256;2022-09-09T15:13:32;2.4;2;0.8
74434;PMS7003;62867;52.038;29.256;2022-09-09T15:18:32;2.6;2;1.2
74434;PMS7003;62867;52.038;29.256;2022-09-09T15:23:42;3;1.8;0.8
74434;PMS7003;62867;52.038;29.256;2022-09-09T15:29:12;4;3;1.6
74434;PMS7003;62867;52.038;29.256;2022-09-09T15:33:58;5.4;3.6;1.8
74434;PMS7003;62867;52.038;29.256;2022-09-09T15:38:44;5;4.2;2
74434;PMS7003;62867;52.038;29.256;2022-09-09T15:43:32;7.2;5.4;3
74434;PMS7003;62867;52.038;29.256;2022-09-09T15:49:16;8.4;5.8;3.4
74434;PMS7003;62867;52.038;29.256;2022-09-09T15:54:12;5.6;4.6;2.8
74434;PMS7003;62867;52.038;29.256;2022-09-09T15:58:58;6.8;5.5;4
74434;PMS7003;62867;52.038;29.256;2022-09-09T16:03:40;7.4;4.8;2.6
74434;PMS7003;62867;52.038;29.256;2022-09-09T16:08:22;5.2;3.8;2.2
74434;PMS7003;62867;52.038;29.256;2022-09-09T16:13:34;5.4;4;2.2
74434;PMS7003;62867;52.038;29.256;2022-09-09T16:18:43;7.8;6;3.6
74434;PMS7003;62867;52.038;29.256;2022-09-09T16:23:42;8.2;6.4;3.6
74434;PMS7003;62867;52.038;29.256;2022-09-09T16:28:48;11.8;10.2;5.4
74434;PMS7003;62867;52.038;29.256;2022-09-09T16:34:08;14.2;12.2;7
74434;PMS7003;62867;52.038;29.256;2022-09-09T16:38:56;10.4;8.8;5
74434;PMS7003;62867;52.038;29.256;2022-09-09T16:44:12;8;7.2;4.8
74434;PMS7003;62867;52.038;29.256;2022-09-09T16:49:11;9.8;7.8;5
74434;PMS7003;62867;52.038;29.256;2022-09-09T16:53:58;12;10.2;5.8
74434;PMS7003;62867;52.038;29.256;2022-09-09T16:58:42;15.3;11;7.5
74434;PMS7003;62867;52.038;29.256;2022-09-09T17:03:56;19.8;14.4;8.6
74434;PMS7003;62867;52.038;29.256;2022-09-09T17:09:10;23.2;19;11.4
74434;PMS7003;62867;52.038;29.256;2022-09-09T17:13:58;22.4;18.2;10.8
74434;PMS7003;62867;52.038;29.256;2022-09-09T17:18:58;26.6;21.2;12.4
74434;PMS7003;62867;52.038;29.256;2022-09-09T17:23:56;25.4;19.6;11.6
74434;PMS7003;62867;52.038;29.256;2022-09-09T17:28:22;13;10.6;5.6
74434;PMS7003;62867;52.038;29.256;2022-09-09T17:33:58;11.4;9.4;5.8
74434;PMS7003;62867;52.038;29.256;2022-09-09T17:38:56;18;15;9
74434;PMS7003;62867;52.038;29.256;2022-09-09T17:43:22;19;16;9.8
74434;PMS7003;62867;52.038;29.256;2022-09-09T17:48:22;22.2;16.8;10.4
74434;PMS7003;62867;52.038;29.256;2022-09-09T17:53:22;16.6;13.6;8.8
74434;PMS7003;62867;52.038;29.256;2022-09-09T17:59:15;17.5;14.5;9.5
74434;PMS7003;62867;52.038;29.256;2022-09-09T18:04:14;18;14.6;9.6
74434;PMS7003;62867;52.038;29.256;2022-09-09T18:08:47;15.4;12.6;8.6
74434;PMS7003;62867;52.038;29.256;2022-09-09T18:13:22;18.6;15.8;10.8
74434;PMS7003;62867;52.038;29.256;2022-09-09T18:19:13;13.6;10.4;6.6
74434;PMS7003;62867;52.038;29.256;2022-09-09T18:24:14;9.3;7.5;4.8
74434;PMS7003;62867;52.038;29.256;2022-09-09T18:28:29;10.2;7.2;4.2
74434;PMS7003;62867;52.038;29.256;2022-09-09T18:33:33;8.8;5.8;3.8
74434;PMS7003;62867;52.038;29.256;2022-09-09T18:38:31;8;7.4;4.2
74434;PMS7003;62867;52.038;29.256;2022-09-09T18:43:32;8.4;7.4;4.2
74434;PMS7003;62867;52.038;29.256;2022-09-09T18:48:42;5.4;5;3.2
74434;PMS7003;62867;52.038;29.256;2022-09-09T18:53:42;7.6;5.6;4
74434;PMS7003;62867;52.038;29.256;2022-09-09T18:58:58;7.4;5.8;4
74434;PMS7003;62867;52.038;29.256;2022-09-09T19:03:46;7.2;5.2;3.2
74434;PMS7003;62867;52.038;29.256;2022-09-09T19:08:45;4.8;4.4;2.8
74434;PMS7003;62867;52.038;29.256;2022-09-09T19:14:12;7.6;5.6;3
74434;PMS7003;62867;52.038;29.256;2022-09-09T19:18:57;7.6;6;3.2
74434;PMS7003;62867;52.038;29.256;2022-09-09T19:23:32;7;4.5;2.8
74434;PMS7003;62867;52.038;29.256;2022-09-09T19:28:22;6.2;5.6;3.4
74434;PMS7003;62867;52.038;29.256;2022-09-09T19:33:42;8.2;6.8;3.6
74434;PMS7003;62867;52.038;29.256;2022-09-09T19:39:08;7.8;6;4
74434;PMS7003;62867;52.038;29.256;2022-09-09T19:43:57;5.8;5;2.8
74434;PMS7003;62867;52.038;29.256;2022-09-09T19:49:06;5.8;5.2;3
74434;PMS7003;62867;52.038;29.256;2022-09-09T19:53:57;6.8;5.2;2.6
74434;PMS7003;62867;52.038;29.256;2022-09-09T19:59:00;5.8;4;2.6
74434;PMS7003;62867;52.038;29.256;2022-09-09T20:03:44;7.4;5;2.6
74434;PMS7003;62867;52.038;29.256;2022-09-09T20:08:56;6.6;5.4;2.6
74434;PMS7003;62867;52.038;29.256;2022-09-09T20:13:22;6;4.6;2.8
74434;PMS7003;62867;52.038;29.256;2022-09-09T20:18:22;6.8;5.6;3
74434;PMS7003;62867;52.038;29.256;2022-09-09T20:23:22;5.4;4.8;3
74434;PMS7003;62867;52.038;29.256;2022-09-09T20:29:13;6.8;4.8;2.8
74434;PMS7003;62867;52.038;29.256;2022-09-09T20:34:13;5.4;3.8;2.4
74434;PMS7003;62867;52.038;29.256;2022-09-09T20:38:45;6.6;5.6;3.4
74434;PMS7003;62867;52.038;29.256;2022-09-09T20:43:32;6.6;4.8;3
74434;PMS7003;62867;52.038;29.256;2022-09-09T20:49:12;7.2;5;2.6
74434;PMS7003;62867;52.038;29.256;2022-09-09T20:54:15;6;4.6;2.8
74434;PMS7003;62867;52.038;29.256;2022-09-09T20:58:46;8;5.8;3.4
74434;PMS7003;62867;52.038;29.256;2022-09-09T21:03:58;7.2;5.6;3.2
74434;PMS7003;62867;52.038;29.256;2022-09-09T21:08:40;7.4;5.4;3
74434;PMS7003;62867;52.038;29.256;2022-09-09T21:13:22;7.8;5.4;3.2
74434;PMS7003;62867;52.038;29.256;2022-09-09T21:18:42;8.2;6.2;3.4
74434;PMS7003;62867;52.038;29.256;2022-09-09T21:23:56;8;6;3.4
74434;PMS7003;62867;52.038;29.256;2022-09-09T21:28:32;5.5;4.5;3
74434;PMS7003;62867;52.038;29.256;2022-09-09T21:33:58;7.2;5.4;3.2
74434;PMS7003;62867;52.038;29.256;2022-09-09T21:38:44;6;6;3.6
74434;PMS7003;62867;52.038;29.256;2022-09-09T21:44:12;7.6;5.6;3.8
74434;PMS7003;62867;52.038;29.256;2022-09-09T21:49:00;7.8;6.8;4
74434;PMS7003;62867;52.038;29.256;2022-09-09T21:53:32;9.4;7.8;4.8
74434;PMS7003;62867;52.038;29.256;2022-09-09T21:58:32;10;7.4;4.6
74434;PMS7003;62867;52.038;29.256;2022-09-09T22:03:32;11;8;4.4
74434;PMS7003;62867;52.038;29.256;2022-09-09T22:08:56;8;7.2;4.6
74434;PMS7003;62867;52.038;29.256;2022-09-09T22:14:12;10.2;8.6;4.8
74434;PMS7003;62867;52.038;29.256;2022-09-09T22:18:32;10.2;7.4;5.2
74434;PMS7003;62867;52.038;29.256;2022-09-09T22:23:55;11.6;9.2;5
74434;PMS7003;62867;52.038;29.256;2022-09-09T22:28:32;10.3;8;5.5
74434;PMS7003;62867;52.038;29.256;2022-09-09T22:33:36;10.6;8.8;5
74434;PMS7003;62867;52.038;29.256;2022-09-09T22:38:44;8.4;7.6;5
74434;PMS7003;62867;52.038;29.256;2022-09-09T22:43:56;11;8.4;5.2
74434;PMS7003;62867;52.038;29.256;2022-09-09T22:48:22;8.6;7.2;4.8
74434;PMS7003;62867;52.038;29.256;2022-09-09T22:54:03;9.6;7.6;5
74434;PMS7003;62867;52.038;29.256;2022-09-09T22:58:33;9;7.2;4.8
74434;PMS7003;62867;52.038;29.256;2022-09-09T23:04:08;10;7.4;5
74434;PMS7003;62867;52.038;29.256;2022-09-09T23:08:57;8.4;6.8;4.6
74434;PMS7003;62867;52.038;29.256;2022-09-09T23:13:35;10.8;8.2;4.6
74434;PMS7003;62867;52.038;29.256;2022-09-09T23:18:36;10;6.8;4.8
74434;PMS7003;62867;52.038;29.256;2022-09-09T23:24:11;7.6;6.6;4.2
74434;PMS7003;62867;52.038;29.256;2022-09-09T23:29:10;9.3;7;4.3
74434;PMS7003;62867;52.038;29.256;2022-09-09T23:34:10;9.8;7.2;4.4
74434;PMS7003;62867;52.038;29.256;2022-09-09T23:38:40;9;6.8;4.6
74434;PMS7003;62867;52.038;29.256;2022-09-09T23:43:22;8.6;6.8;4.6
74434;PMS7003;62867;52.038;29.256;2022-09-09T23:49:10;9;7.6;5
74434;PMS7003;62867;52.038;29.256;2022-09-09T23:53:43;8;6.8;4.6
74434;PMS7003;62867;52.038;29.256;2022-09-09T23:58:22;8.8;7;4.6
